Creston, Indiana
Current Conditions -  °F | °C
As of 1:15 PM on Monday 20 Oct 2014 (Local Time) from KIGQ Reporting Station
Clear Clear  
Wind Chill: 62°   Ceiling: Unl
Heat Index: 62°   Visibility: 10mi
Dew Point: 48°   Wind: 5mph
Humidity: 62%   Direction: 320°NW
Pressure: 29.84"   Gusts: 20mph
Location:  41.2585°N, 87.4193°W
Report Text: KIGQ 201815Z AUTO 32004G17KT 10SM CLR 16/09 A2984 RMK AO2 T01640090
Loading
Personal Weather Stations






























Interactive Weather Map
Tropical Storm Tracking
New forecast layout! Learn more

10-Day Weather Forecast

Advertisements
Track Severe Weather on mobile